Time;durP1;ratioP1;P1;durP2;ratioP2;P2;SDS_P1;SDS_P2;PMS_P1;PMS_P2;Temp;Humidity;BMP_temperature;BMP_pressure;BME280_temperature;BME280_humidity;BME280_pressure;Samples;Min_cycle;Max_cycle;Signal;HPM_P1;HPM_P2
2021/11/18 00:01:10;;;;;;;47.58;27.05;;;2.60;64.00;;;;;;4957695;28;20050;-59
2021/11/18 00:03:37;;;;;;;48.65;28.05;;;2.50;64.00;;;;;;4957368;28;20038;-58
2021/11/18 00:06:02;;;;;;;42.60;27.30;;;2.50;64.00;;;;;;4956301;28;20050;-58
2021/11/18 00:08:29;;;;;;;48.33;30.25;;;2.50;63.90;;;;;;4957357;28;20031;-58
2021/11/18 00:10:57;;;;;;;50.13;31.55;;;2.50;64.00;;;;;;4957559;28;20035;-59
2021/11/18 00:13:27;;;;;;;47.08;30.23;;;2.50;63.90;;;;;;4944303;29;20115;-59
2021/11/18 00:15:54;;;;;;;54.63;31.65;;;2.50;63.90;;;;;;4957528;28;20030;-60
2021/11/18 00:18:22;;;;;;;50.88;32.28;;;2.50;63.90;;;;;;4957004;28;20031;-59
2021/11/18 00:20:52;;;;;;;50.13;32.80;;;2.40;63.90;;;;;;4956675;28;20026;-58
2021/11/18 00:23:18;;;;;;;51.67;32.70;;;2.50;64.00;;;;;;4956122;28;20031;-58
2021/11/18 00:25:44;;;;;;;49.88;30.88;;;2.40;64.00;;;;;;4957250;28;20038;-57
2021/11/18 00:28:10;;;;;;;60.53;35.13;;;2.40;64.70;;;;;;4956930;28;20071;-58
2021/11/18 00:30:37;;;;;;;53.45;32.80;;;2.40;64.20;;;;;;4957101;28;20093;-59
2021/11/18 00:33:04;;;;;;;50.67;33.20;;;2.30;64.10;;;;;;4956795;28;20060;-57
2021/11/18 00:35:31;;;;;;;50.55;33.60;;;2.30;64.10;;;;;;4960667;28;20045;-58
2021/11/18 00:37:57;;;;;;;50.55;32.00;;;2.30;64.20;;;;;;4956424;28;20105;-59
2021/11/18 00:40:30;;;;;;;51.92;33.78;;;2.30;64.30;;;;;;4955057;28;20166;-58
2021/11/18 00:42:56;;;;;;;53.38;33.40;;;2.30;64.20;;;;;;4956094;28;20027;-59
2021/11/18 00:45:24;;;;;;;52.58;30.70;;;2.30;64.10;;;;;;4955767;28;20106;-59
2021/11/18 00:47:51;;;;;;;48.33;31.13;;;2.30;64.10;;;;;;4952092;29;20055;-59
2021/11/18 00:50:20;;;;;;;46.80;31.40;;;2.20;64.00;;;;;;4955975;28;20042;-60
2021/11/18 00:52:46;;;;;;;48.15;28.85;;;2.20;63.90;;;;;;4955572;28;20039;-58
2021/11/18 00:55:12;;;;;;;47.55;30.33;;;2.20;64.00;;;;;;4955171;28;20025;-59
2021/11/18 00:57:39;;;;;;;52.50;32.10;;;2.20;64.00;;;;;;4955669;28;20094;-58
2021/11/18 01:00:13;;;;;;;51.40;31.92;;;2.20;64.00;;;;;;4955851;28;20034;-58
2021/11/18 01:02:38;;;;;;;54.53;32.45;;;2.20;64.00;;;;;;4955309;29;20065;-58
2021/11/18 01:05:06;;;;;;;46.63;31.13;;;2.20;64.10;;;;;;4955355;28;20085;-57
2021/11/18 01:07:32;;;;;;;48.05;29.30;;;2.20;64.10;;;;;;4955792;28;20032;-58
2021/11/18 01:09:59;;;;;;;42.55;27.75;;;2.20;64.10;;;;;;4954863;28;20086;-59
2021/11/18 01:12:25;;;;;;;48.20;30.83;;;2.20;64.00;;;;;;4951925;28;20353;-59
2021/11/18 01:14:51;;;;;;;49.00;31.63;;;2.20;64.10;;;;;;4956097;28;20038;-59
2021/11/18 01:17:17;;;;;;;45.58;29.17;;;2.20;64.10;;;;;;4954733;28;20114;-58
2021/11/18 01:19:43;;;;;;;44.75;28.65;;;2.10;64.10;;;;;;4953213;29;20042;-58
2021/11/18 01:22:09;;;;;;;42.45;27.60;;;2.10;64.20;;;;;;4955079;28;20031;-59
2021/11/18 01:24:38;;;;;;;44.38;27.13;;;2.10;64.20;;;;;;4954319;29;20467;-58
2021/11/18 01:27:04;;;;;;;43.10;27.58;;;2.10;64.20;;;;;;4954130;28;20063;-59
2021/11/18 01:29:30;;;;;;;43.78;28.73;;;2.10;64.20;;;;;;4943814;28;20073;-59
2021/11/18 01:31:56;;;;;;;45.55;26.73;;;2.10;64.30;;;;;;4954942;28;20503;-58
2021/11/18 01:34:22;;;;;;;41.22;26.98;;;2.10;64.30;;;;;;4954736;28;20127;-58
2021/11/18 01:36:48;;;;;;;40.03;26.63;;;2.10;64.50;;;;;;4954742;28;20110;-57
2021/11/18 01:39:14;;;;;;;39.35;25.58;;;2.00;64.30;;;;;;4965680;28;20042;-58
2021/11/18 01:41:42;;;;;;;38.70;24.85;;;2.00;64.40;;;;;;4954561;28;20035;-59
2021/11/18 01:44:28;;;;;;;43.30;27.90;;;2.00;64.40;;;;;;4954372;28;20056;-58
2021/11/18 01:46:54;;;;;;;46.63;26.92;;;2.00;64.60;;;;;;4954076;29;20074;-57
2021/11/18 01:49:19;;;;;;;38.70;25.83;;;1.90;64.40;;;;;;4955013;28;20102;-57
2021/11/18 01:51:49;;;;;;;41.45;25.73;;;1.90;64.50;;;;;;4955068;28;20035;-58
2021/11/18 01:54:18;;;;;;;43.80;27.15;;;1.90;64.60;;;;;;4954731;28;20062;-58
2021/11/18 01:56:44;;;;;;;43.35;27.73;;;1.90;64.60;;;;;;4954164;28;20038;-58
2021/11/18 01:59:32;;;;;;;44.65;26.75;;;2.00;64.70;;;;;;4952730;28;20031;-58
2021/11/18 02:01:58;;;;;;;40.67;25.75;;;2.00;64.70;;;;;;4949497;29;20042;-58
2021/11/18 02:04:28;;;;;;;42.40;28.25;;;2.00;64.70;;;;;;4955439;28;20015;-59
2021/11/18 02:07:04;;;;;;;44.25;27.80;;;2.00;64.50;;;;;;4954836;28;20113;-55
2021/11/18 02:09:37;;;;;;;42.80;26.05;;;1.90;65.00;;;;;;4954677;28;20538;-59
2021/11/18 02:12:12;;;;;;;41.33;27.85;;;2.00;65.10;;;;;;4954229;28;20086;-58
2021/11/18 02:14:38;;;;;;;43.35;26.42;;;1.90;64.10;;;;;;4951091;28;20476;-58
2021/11/18 02:17:07;;;;;;;42.13;28.30;;;1.90;64.20;;;;;;4954242;28;20020;-57
2021/11/18 02:19:46;;;;;;;43.80;27.98;;;1.90;64.20;;;;;;4953893;28;20043;-57
2021/11/18 02:22:13;;;;;;;46.90;28.63;;;1.90;64.00;;;;;;4954023;29;20035;-59
2021/11/18 02:24:43;;;;;;;38.53;26.08;;;1.90;63.90;;;;;;4954210;28;20038;-57
2021/11/18 02:27:12;;;;;;;38.45;24.95;;;1.80;64.00;;;;;;4954941;28;20024;-57
2021/11/18 02:29:39;;;;;;;42.67;26.10;;;1.80;64.10;;;;;;4953970;29;20031;-57
2021/11/18 02:32:08;;;;;;;43.38;27.05;;;1.80;64.20;;;;;;4952886;28;20087;-56
2021/11/18 02:34:44;;;;;;;42.72;27.77;;;1.80;64.30;;;;;;4954792;28;20067;-58
2021/11/18 02:37:10;;;;;;;45.17;28.13;;;1.80;64.30;;;;;;4955112;28;20023;-57
2021/11/18 02:39:36;;;;;;;41.75;28.95;;;1.80;64.10;;;;;;4954652;28;20061;-57
2021/11/18 02:42:04;;;;;;;44.08;29.60;;;1.80;64.00;;;;;;4953907;28;20035;-58
2021/11/18 02:44:31;;;;;;;41.28;28.27;;;1.80;64.10;;;;;;4954445;28;20416;-59
2021/11/18 02:46:59;;;;;;;44.00;28.98;;;1.80;64.20;;;;;;4954575;28;20375;-58
2021/11/18 02:49:24;;;;;;;45.75;28.00;;;1.80;64.10;;;;;;4954147;28;20039;-58
2021/11/18 02:51:51;;;;;;;43.83;29.15;;;1.80;64.10;;;;;;4954653;28;20035;-57
2021/11/18 02:54:18;;;;;;;40.70;27.67;;;1.90;64.10;;;;;;4954472;28;20042;-59
2021/11/18 02:56:43;;;;;;;41.08;27.67;;;1.90;64.10;;;;;;4954454;28;20038;-59
2021/11/18 02:59:09;;;;;;;46.67;29.67;;;1.90;64.20;;;;;;4954434;28;20031;-59
2021/11/18 03:01:39;;;;;;;36.53;25.80;;;1.90;64.30;;;;;;4954569;28;20035;-55
2021/11/18 03:04:05;;;;;;;38.35;25.52;;;1.90;64.60;;;;;;4954852;28;20389;-59
2021/11/18 03:06:31;;;;;;;38.35;26.70;;;1.80;64.50;;;;;;4953653;28;20028;-59
2021/11/18 03:08:57;;;;;;;37.22;25.08;;;1.80;64.60;;;;;;4954402;28;20416;-58
2021/11/18 03:11:25;;;;;;;38.03;25.85;;;1.80;64.70;;;;;;4954655;28;20023;-58
2021/11/18 03:13:53;;;;;;;42.47;28.20;;;1.80;64.60;;;;;;4954254;28;20035;-59
2021/11/18 03:16:20;;;;;;;48.20;29.10;;;1.90;64.80;;;;;;4954181;28;20494;-57
2021/11/18 03:18:46;;;;;;;45.92;30.38;;;1.90;64.50;;;;;;4954270;28;20475;-57
2021/11/18 03:21:15;;;;;;;38.80;26.83;;;1.90;64.30;;;;;;4954444;28;20036;-57
2021/11/18 03:23:41;;;;;;;46.55;30.00;;;1.90;64.20;;;;;;4953154;28;20522;-58
2021/11/18 03:26:09;;;;;;;40.40;28.02;;;1.80;64.10;;;;;;4953667;28;20028;-59
2021/11/18 03:28:35;;;;;;;41.50;28.92;;;1.80;64.20;;;;;;4954548;28;20110;-59
2021/11/18 03:31:06;;;;;;;43.42;29.60;;;1.80;64.20;;;;;;4957125;28;20163;-56
2021/11/18 03:33:40;;;;;;;46.13;29.25;;;1.80;64.10;;;;;;4957838;28;20023;-58
2021/11/18 03:36:06;;;;;;;41.25;30.00;;;1.80;64.20;;;;;;4957689;29;20042;-59
2021/11/18 03:38:32;;;;;;;47.80;29.27;;;1.80;64.30;;;;;;4957864;28;20058;-59
2021/11/18 03:41:04;;;;;;;42.97;31.63;;;1.80;64.40;;;;;;4956496;28;20043;-58
2021/11/18 03:43:34;;;;;;;45.88;31.48;;;1.80;64.30;;;;;;4957687;28;20023;-58
2021/11/18 03:46:00;;;;;;;47.45;32.03;;;1.80;64.40;;;;;;4956961;28;20057;-59
2021/11/18 03:48:29;;;;;;;48.38;32.83;;;1.80;64.30;;;;;;4956625;28;20535;-59
2021/11/18 03:50:55;;;;;;;47.72;32.45;;;1.80;64.20;;;;;;4958063;28;20031;-58
2021/11/18 03:53:20;;;;;;;45.97;32.70;;;1.80;64.20;;;;;;4957465;28;20039;-58
2021/11/18 03:55:46;;;;;;;45.92;34.85;;;1.80;64.20;;;;;;4956641;28;20495;-57
2021/11/18 03:58:12;;;;;;;45.50;31.42;;;1.80;64.30;;;;;;4956627;28;20042;-58
2021/11/18 04:00:39;;;;;;;42.15;30.20;;;1.80;64.20;;;;;;4957141;28;20444;-58
2021/11/18 04:03:07;;;;;;;47.40;32.17;;;1.80;64.40;;;;;;4954143;28;20067;-59
2021/11/18 04:05:34;;;;;;;51.50;32.97;;;1.80;64.20;;;;;;4943670;28;20456;-59
2021/11/18 04:08:00;;;;;;;42.83;31.02;;;1.80;64.10;;;;;;4956227;28;20038;-59
2021/11/18 04:10:28;;;;;;;45.00;32.25;;;1.80;64.10;;;;;;4957671;28;20368;-58
2021/11/18 04:12:54;;;;;;;48.97;32.15;;;1.80;64.10;;;;;;4956224;28;20035;-57
2021/11/18 04:15:22;;;;;;;52.33;32.45;;;1.80;64.10;;;;;;4957173;28;20027;-59
2021/11/18 04:17:48;;;;;;;49.17;30.77;;;1.70;64.10;;;;;;4957103;28;20039;-60
2021/11/18 04:20:15;;;;;;;53.00;32.47;;;1.70;64.10;;;;;;4956949;28;20035;-58
2021/11/18 04:22:42;;;;;;;51.65;32.63;;;1.70;64.10;;;;;;4956893;28;20031;-58
2021/11/18 04:25:11;;;;;;;51.97;32.70;;;1.70;64.00;;;;;;4954224;29;20472;-59
2021/11/18 04:27:39;;;;;;;46.95;31.05;;;1.70;64.00;;;;;;4954857;28;20518;-59
2021/11/18 04:30:07;;;;;;;48.60;30.95;;;1.70;64.10;;;;;;4955910;28;20031;-58
2021/11/18 04:32:33;;;;;;;48.65;31.90;;;1.70;64.10;;;;;;4956141;29;20034;-58
2021/11/18 04:34:59;;;;;;;46.08;30.27;;;1.70;63.90;;;;;;4954826;28;20110;-59
2021/11/18 04:37:25;;;;;;;46.15;30.60;;;1.70;63.90;;;;;;4956393;28;20027;-57
2021/11/18 04:39:51;;;;;;;50.05;31.65;;;1.70;63.90;;;;;;4955819;28;20047;-58
2021/11/18 04:42:19;;;;;;;49.13;32.90;;;1.70;64.10;;;;;;4951200;28;20019;-58
2021/11/18 04:44:45;;;;;;;50.60;32.58;;;1.70;64.20;;;;;;4954947;28;20166;-59
2021/11/18 04:47:12;;;;;;;49.22;33.58;;;1.70;64.20;;;;;;4953876;28;20023;-58
2021/11/18 04:49:40;;;;;;;53.85;34.35;;;1.70;64.10;;;;;;4954436;28;20031;-59
2021/11/18 04:52:07;;;;;;;50.75;33.65;;;1.70;64.10;;;;;;4954795;28;20467;-59
2021/11/18 04:54:33;;;;;;;56.08;35.28;;;1.70;64.10;;;;;;4955494;28;20023;-58
2021/11/18 04:56:59;;;;;;;56.78;36.35;;;1.70;63.90;;;;;;4954232;29;20038;-58
2021/11/18 04:59:24;;;;;;;55.58;36.35;;;1.70;64.10;;;;;;4954716;28;20345;-57
2021/11/18 05:01:50;;;;;;;55.55;35.92;;;1.70;63.90;;;;;;4955508;28;20028;-58
2021/11/18 05:04:17;;;;;;;56.47;34.80;;;1.60;63.90;;;;;;4955606;28;20023;-58
2021/11/18 05:06:43;;;;;;;58.10;37.85;;;1.70;64.20;;;;;;4955366;28;20034;-59
2021/11/18 05:09:10;;;;;;;57.58;36.20;;;1.70;64.10;;;;;;4955628;28;20027;-58
2021/11/18 05:11:36;;;;;;;56.03;36.05;;;1.70;64.20;;;;;;4955940;28;20039;-57
2021/11/18 05:14:05;;;;;;;54.42;34.80;;;1.70;64.30;;;;;;4955471;28;20054;-58
2021/11/18 05:16:31;;;;;;;51.88;34.42;;;1.70;64.30;;;;;;4955761;28;20042;-58
2021/11/18 05:18:57;;;;;;;46.60;31.73;;;1.70;64.20;;;;;;4955548;28;20356;-58
2021/11/18 05:21:28;;;;;;;46.90;31.35;;;1.80;64.20;;;;;;4954386;28;20026;-54
2021/11/18 05:23:55;;;;;;;;;;;1.80;64.30;;;;;;4955890;28;20047;-57
2021/11/18 05:26:22;;;;;;;39.67;26.60;;;1.70;64.10;;;;;;4955382;28;19913;-58
2021/11/18 05:28:48;;;;;;;44.88;29.58;;;1.80;64.30;;;;;;4955682;28;20031;-58
2021/11/18 05:31:16;;;;;;;43.50;29.23;;;1.80;64.10;;;;;;4955820;28;20029;-57
2021/11/18 05:33:42;;;;;;;42.90;26.73;;;1.80;64.10;;;;;;4955237;28;20090;-58
2021/11/18 05:36:09;;;;;;;43.25;26.98;;;1.80;64.10;;;;;;4954742;28;20027;-59
2021/11/18 05:38:35;;;;;;;44.20;27.75;;;1.80;64.10;;;;;;4955320;28;20066;-59
2021/11/18 05:41:01;;;;;;;41.83;27.83;;;1.80;64.10;;;;;;4955601;28;20369;-59
2021/11/18 05:43:29;;;;;;;39.78;26.90;;;1.80;64.10;;;;;;4954442;28;20078;-58
2021/11/18 05:45:56;;;;;;;37.90;25.13;;;1.80;64.10;;;;;;4954857;28;20456;-54
2021/11/18 05:48:23;;;;;;;38.58;25.90;;;1.90;63.90;;;;;;4954636;28;20404;-59
2021/11/18 05:50:52;;;;;;;36.85;25.63;;;1.80;64.00;;;;;;4948496;28;20030;-59
2021/11/18 05:53:20;;;;;;;35.05;23.70;;;1.80;64.10;;;;;;4945699;29;20038;-59
2021/11/18 05:55:47;;;;;;;39.75;25.02;;;1.90;64.10;;;;;;4954653;28;20031;-59
2021/11/18 05:58:13;;;;;;;36.47;26.25;;;1.90;64.20;;;;;;4952121;29;20027;-58
2021/11/18 06:00:39;;;;;;;37.08;24.92;;;1.90;64.10;;;;;;4954615;28;20030;-58
2021/11/18 06:03:05;;;;;;;40.88;25.73;;;2.00;64.20;;;;;;4955167;28;20034;-59
2021/11/18 06:05:32;;;;;;;39.72;25.08;;;2.00;64.00;;;;;;4951734;28;20600;-59
2021/11/18 06:07:58;;;;;;;45.05;28.52;;;2.10;63.90;;;;;;4948195;28;20023;-59
2021/11/18 06:10:26;;;;;;;42.72;28.75;;;2.10;63.90;;;;;;4944535;28;20066;-59
2021/11/18 06:12:52;;;;;;;45.10;28.52;;;2.20;63.80;;;;;;4957138;28;20058;-61
2021/11/18 06:15:18;;;;;;;41.25;28.15;;;2.20;63.70;;;;;;4953236;28;20047;-62
2021/11/18 06:17:44;;;;;;;45.10;27.75;;;2.20;63.50;;;;;;4947724;29;20025;-63
2021/11/18 06:20:12;;;;;;;43.00;26.05;;;2.20;63.50;;;;;;4946085;28;20035;-63
2021/11/18 06:22:38;;;;;;;44.13;28.35;;;2.10;63.50;;;;;;4942261;28;20027;-63
2021/11/18 06:25:06;;;;;;;42.47;28.70;;;2.00;63.50;;;;;;4945127;28;20446;-63
2021/11/18 06:27:34;;;;;;;54.97;33.25;;;2.00;63.50;;;;;;4942295;28;20031;-59
2021/11/18 06:30:00;;;;;;;41.13;28.15;;;1.90;63.70;;;;;;4949623;29;20134;-60
2021/11/18 06:32:25;;;;;;;45.45;26.55;;;1.90;63.80;;;;;;4942069;28;20122;-58
2021/11/18 06:34:51;;;;;;;37.13;25.58;;;1.90;63.90;;;;;;4952638;28;20039;-56
2021/11/18 06:37:17;;;;;;;40.03;25.83;;;1.90;63.90;;;;;;4947948;28;20456;-59
2021/11/18 06:39:43;;;;;;;46.28;30.00;;;1.90;63.90;;;;;;4943633;29;20096;-58
2021/11/18 06:42:11;;;;;;;50.47;38.58;;;2.00;63.90;;;;;;4948303;28;20035;-59
2021/11/18 06:44:39;;;;;;;52.53;40.65;;;1.90;63.90;;;;;;4947389;28;20132;-55
2021/11/18 06:47:05;;;;;;;46.72;38.97;;;1.90;64.10;;;;;;4937765;28;20057;-59
2021/11/18 06:49:31;;;;;;;53.35;42.13;;;2.00;64.20;;;;;;4947465;29;20075;-58
2021/11/18 06:51:57;;;;;;;46.67;38.40;;;2.00;64.00;;;;;;4948425;28;20031;-56
2021/11/18 06:54:23;;;;;;;47.55;34.90;;;2.00;64.00;;;;;;4951333;28;20031;-59
2021/11/18 06:56:49;;;;;;;42.90;30.55;;;2.00;64.10;;;;;;4948086;28;20040;-58
2021/11/18 06:59:15;;;;;;;46.72;31.27;;;2.10;64.80;;;;;;4940538;28;20028;-60
2021/11/18 07:01:42;;;;;;;43.63;27.85;;;2.10;64.20;;;;;;4935981;28;20541;-60
2021/11/18 07:04:08;;;;;;;43.67;28.67;;;2.20;64.30;;;;;;4940513;28;20027;-59
2021/11/18 07:06:36;;;;;;;50.75;32.33;;;2.20;64.20;;;;;;4941303;28;20123;-60
2021/11/18 07:09:05;;;;;;;53.70;31.42;;;2.30;64.40;;;;;;4948340;28;20068;-60
2021/11/18 07:11:31;;;;;;;45.55;30.15;;;2.40;64.60;;;;;;4946900;29;20062;-59
2021/11/18 07:13:57;;;;;;;59.78;31.92;;;2.40;64.40;;;;;;4949469;28;20039;-62
2021/11/18 07:16:24;;;;;;;49.78;32.40;;;2.50;64.30;;;;;;4939493;28;23460;-62
2021/11/18 07:18:50;;;;;;;54.88;33.85;;;2.60;64.30;;;;;;4946886;28;20392;-64
2021/11/18 07:21:16;;;;;;;42.20;30.92;;;2.60;64.20;;;;;;4938045;28;20038;-62
2021/11/18 07:23:43;;;;;;;49.95;32.58;;;2.70;64.10;;;;;;4943604;28;20028;-64
2021/11/18 07:26:11;;;;;;;44.40;28.17;;;2.70;64.20;;;;;;4938246;28;20118;-64
2021/11/18 07:28:39;;;;;;;42.80;28.90;;;2.80;64.30;;;;;;4935262;28;20499;-64
2021/11/18 07:31:06;;;;;;;44.83;28.88;;;2.80;64.20;;;;;;4944067;28;20416;-64
2021/11/18 07:33:33;;;;;;;38.25;25.08;;;2.90;64.30;;;;;;4939086;28;20965;-64
2021/11/18 07:35:59;;;;;;;34.97;22.65;;;2.90;64.30;;;;;;4933953;29;20031;-64
2021/11/18 07:38:28;;;;;;;32.22;23.02;;;3.10;64.50;;;;;;4937778;28;20062;-64
2021/11/18 07:40:54;;;;;;;29.92;21.23;;;3.20;64.60;;;;;;4932011;28;20467;-63
2021/11/18 07:43:27;;;;;;;30.95;21.17;;;3.30;64.50;;;;;;4932474;28;20601;-64
2021/11/18 07:45:59;;;;;;;30.92;20.48;;;3.40;64.40;;;;;;4939982;28;20098;-65
2021/11/18 07:48:25;;;;;;;34.63;22.63;;;3.50;64.20;;;;;;4941599;28;20035;-64
2021/11/18 07:50:51;;;;;;;31.75;22.50;;;3.60;64.20;;;;;;4942791;28;20735;-64
2021/11/18 07:53:17;;;;;;;32.95;22.73;;;3.70;64.10;;;;;;4935576;28;20126;-61
2021/11/18 07:55:45;;;;;;;32.90;21.65;;;3.80;64.20;;;;;;4937073;28;20118;-61
2021/11/18 07:58:11;;;;;;;34.15;19.65;;;3.90;64.20;;;;;;4935506;28;20027;-61
2021/11/18 08:00:38;;;;;;;28.45;17.75;;;4.00;64.20;;;;;;4932770;28;21077;-61
2021/11/18 08:03:09;;;;;;;32.47;21.08;;;4.10;64.20;;;;;;4933879;28;20031;-63
2021/11/18 08:05:34;;;;;;;37.23;23.23;;;4.20;63.90;;;;;;4937009;28;20685;-62
2021/11/18 08:08:00;;;;;;;31.60;21.90;;;4.30;63.70;;;;;;4939812;28;20288;-62
2021/11/18 08:10:26;;;;;;;34.80;22.58;;;4.40;63.40;;;;;;4937082;28;20087;-63
2021/11/18 08:12:52;;;;;;;42.45;24.70;;;4.40;63.00;;;;;;4939643;28;20035;-62
2021/11/18 08:15:18;;;;;;;38.03;25.95;;;4.40;62.70;;;;;;4930542;28;20031;-62
2021/11/18 08:17:45;;;;;;;45.17;28.75;;;4.40;62.70;;;;;;4935301;28;20041;-62
2021/11/18 08:20:12;;;;;;;45.35;30.75;;;4.40;62.50;;;;;;4935849;28;20047;-64
2021/11/18 08:22:38;;;;;;;41.95;29.17;;;4.40;62.50;;;;;;4933414;28;20423;-63
2021/11/18 08:25:05;;;;;;;47.78;30.33;;;4.40;62.40;;;;;;4937121;28;20050;-62
2021/11/18 08:27:32;;;;;;;41.35;26.20;;;4.40;62.30;;;;;;4940136;28;20412;-63
2021/11/18 08:29:58;;;;;;;37.35;24.40;;;4.40;62.20;;;;;;4936807;28;20042;-64
2021/11/18 08:32:25;;;;;;;34.80;22.48;;;4.30;62.00;;;;;;4933487;28;20031;-62
2021/11/18 08:34:50;;;;;;;31.70;20.75;;;4.30;62.00;;;;;;4934687;28;20070;-60
2021/11/18 08:37:17;;;;;;;28.38;18.00;;;4.30;61.70;;;;;;4932530;28;20115;-61
2021/11/18 08:39:43;;;;;;;27.20;18.48;;;4.20;61.60;;;;;;4932783;28;20055;-61
2021/11/18 08:42:12;;;;;;;33.33;19.38;;;4.20;61.70;;;;;;4933907;28;20034;-61
2021/11/18 08:44:39;;;;;;;30.05;20.45;;;4.10;61.60;;;;;;4933469;28;20035;-59
2021/11/18 08:47:07;;;;;;;27.33;17.83;;;4.20;62.00;;;;;;4933781;28;20036;-58
2021/11/18 08:49:34;;;;;;;28.65;17.92;;;4.20;61.90;;;;;;4935068;28;20122;-60
2021/11/18 08:52:08;;;;;;;31.80;19.40;;;4.20;61.90;;;;;;4936422;28;20078;-60
2021/11/18 08:54:34;;;;;;;27.52;17.40;;;4.20;61.90;;;;;;4936106;28;20019;-60
2021/11/18 08:57:00;;;;;;;28.15;17.95;;;4.30;62.20;;;;;;4933091;28;20554;-60
2021/11/18 08:59:26;;;;;;;26.15;18.30;;;4.30;62.10;;;;;;4930004;28;20044;-61
2021/11/18 09:01:57;;;;;;;30.10;18.35;;;4.50;62.10;;;;;;4929794;28;20062;-61
2021/11/18 09:04:24;;;;;;;27.00;18.90;;;4.60;62.10;;;;;;4933022;28;20028;-63
2021/11/18 09:06:51;;;;;;;31.70;21.23;;;4.70;62.00;;;;;;4935841;28;20040;-60
2021/11/18 09:09:21;;;;;;;40.13;22.67;;;4.80;62.10;;;;;;4931526;28;20028;-61
2021/11/18 09:11:47;;;;;;;35.70;22.65;;;4.90;61.90;;;;;;4930935;28;21013;-60
2021/11/18 09:14:15;;;;;;;33.78;23.45;;;5.00;61.90;;;;;;4938242;28;20031;-61
2021/11/18 09:16:43;;;;;;;37.50;24.60;;;5.10;61.80;;;;;;4936237;28;20039;-61
2021/11/18 09:19:12;;;;;;;40.40;25.58;;;5.20;61.70;;;;;;4935484;28;20038;-62
2021/11/18 09:21:40;;;;;;;38.10;24.50;;;5.30;61.80;;;;;;4934681;28;20032;-62
2021/11/18 09:24:23;;;;;;;37.40;24.33;;;5.40;61.60;;;;;;4932014;28;20428;-61
2021/11/18 09:27:02;;;;;;;33.05;21.23;;;5.50;61.60;;;;;;4923697;28;20024;-61
2021/11/18 09:29:29;;;;;;;32.47;21.50;;;5.50;61.60;;;;;;4934565;28;20511;-61
2021/11/18 09:31:56;;;;;;;35.60;22.83;;;5.50;61.40;;;;;;4932430;28;20479;-60
2021/11/18 09:34:23;;;;;;;36.03;22.50;;;5.50;61.40;;;;;;4933333;28;20106;-61
2021/11/18 09:36:49;;;;;;;30.92;21.25;;;5.50;61.50;;;;;;4937363;28;20468;-60
2021/11/18 09:39:16;;;;;;;30.60;21.48;;;5.50;61.40;;;;;;4937548;28;20074;-61
2021/11/18 09:41:45;;;;;;;28.55;19.55;;;5.50;61.50;;;;;;4930659;28;20059;-60
2021/11/18 09:44:42;;;;;;;28.02;18.75;;;5.50;61.60;;;;;;4934196;28;20090;-62
2021/11/18 09:47:27;;;;;;;33.25;19.17;;;5.40;61.40;;;;;;4929544;28;20027;-61
2021/11/18 09:50:14;;;;;;;27.90;18.58;;;5.40;61.50;;;;;;4930447;28;20031;-62
2021/11/18 09:53:12;;;;;;;27.67;18.30;;;5.40;61.50;;;;;;4934980;28;20039;-61
2021/11/18 09:55:42;;;;;;;27.02;18.23;;;5.40;61.60;;;;;;4917429;28;20035;-63
2021/11/18 09:58:35;;;;;;;26.55;17.50;;;5.40;61.60;;;;;;4931273;28;20044;-62
2021/11/18 10:01:25;;;;;;;25.58;17.13;;;5.40;61.60;;;;;;4928427;28;20034;-62
2021/11/18 10:03:55;;;;;;;30.10;17.50;;;5.40;61.60;;;;;;4929199;28;20039;-61
2021/11/18 10:06:29;;;;;;;27.55;16.83;;;5.30;61.80;;;;;;4933675;28;20067;-60
2021/11/18 10:09:16;;;;;;;28.38;17.48;;;5.20;61.90;;;;;;4930645;28;20654;-62
2021/11/18 10:12:06;;;;;;;28.35;18.48;;;5.30;62.10;;;;;;4927858;28;20795;-60
2021/11/18 10:14:51;;;;;;;28.55;18.50;;;5.30;62.20;;;;;;4933447;28;20059;-61
2021/11/18 10:17:22;;;;;;;29.38;18.52;;;5.30;62.30;;;;;;4933400;28;20459;-62
2021/11/18 10:20:13;;;;;;;30.10;20.33;;;5.20;62.30;;;;;;4936081;28;20424;-62
2021/11/18 10:22:43;;;;;;;36.17;21.92;;;5.30;62.50;;;;;;4949829;28;20043;-60
2021/11/18 10:25:14;;;;;;;30.58;19.60;;;5.30;62.60;;;;;;4926890;28;20031;-60
2021/11/18 10:28:00;;;;;;;30.02;20.02;;;5.30;62.60;;;;;;4933021;28;20471;-61
2021/11/18 10:30:42;;;;;;;30.60;19.42;;;5.40;62.70;;;;;;4929366;28;20475;-61
2021/11/18 10:33:15;;;;;;;30.98;20.00;;;5.40;62.70;;;;;;4930370;28;20035;-60
2021/11/18 10:35:53;;;;;;;32.03;19.30;;;5.40;62.80;;;;;;4932084;28;20118;-59
2021/11/18 10:38:23;;;;;;;30.88;18.67;;;5.50;63.00;;;;;;4936632;28;20154;-59
2021/11/18 10:41:01;;;;;;;26.57;18.47;;;5.50;62.90;;;;;;4932603;28;20154;-61
2021/11/18 10:43:31;;;;;;;31.27;18.55;;;5.60;62.90;;;;;;4938319;28;20041;-61
2021/11/18 10:46:25;;;;;;;26.95;18.13;;;5.60;62.90;;;;;;4935742;28;20027;-56
2021/11/18 10:48:56;;;;;;;27.75;19.05;;;5.60;62.80;;;;;;4950340;28;22436;-61
2021/11/18 10:51:50;;;;;;;27.30;17.25;;;5.60;62.70;;;;;;4938067;29;20038;-61
2021/11/18 10:54:18;;;;;;;26.15;16.67;;;5.60;62.70;;;;;;4932395;28;20118;-62
2021/11/18 10:57:05;;;;;;;25.42;16.45;;;5.60;62.70;;;;;;4939848;28;20036;-61
2021/11/18 10:59:40;;;;;;;28.40;18.08;;;5.60;62.90;;;;;;4932659;28;20023;-62
2021/11/18 11:02:31;;;;;;;31.00;19.00;;;5.70;62.90;;;;;;4938119;28;20039;-61
2021/11/18 11:05:00;;;;;;;30.75;17.95;;;5.70;63.00;;;;;;4937467;28;20399;-62
2021/11/18 11:07:41;;;;;;;26.35;19.20;;;5.70;63.10;;;;;;4935926;28;20568;-62
2021/11/18 11:10:12;;;;;;;29.52;20.02;;;5.80;63.10;;;;;;4941569;28;20487;-62
2021/11/18 11:12:50;;;;;;;29.60;18.23;;;5.80;63.10;;;;;;4935529;28;20043;-62
2021/11/18 11:15:42;;;;;;;25.08;17.38;;;5.80;63.10;;;;;;4938818;28;20051;-62
2021/11/18 11:18:26;;;;;;;;;;;5.90;63.20;;;;;;4937142;28;20024;-62
2021/11/18 11:20:59;;;;;;;24.45;17.45;;;5.80;63.10;;;;;;4937778;28;19915;-62
2021/11/18 11:23:59;;;;;;;29.80;19.98;;;5.90;63.20;;;;;;4950012;28;20035;-62
2021/11/18 11:26:43;;;;;;;27.40;19.20;;;5.90;63.30;;;;;;4942437;28;20050;-61
2021/11/18 11:29:27;;;;;;;29.50;21.42;;;5.90;63.30;;;;;;4947066;28;20023;-62
2021/11/18 11:32:10;;;;;;;31.42;20.30;;;5.90;63.30;;;;;;4943295;28;20034;-62
2021/11/18 11:34:42;;;;;;;35.15;23.60;;;5.90;63.30;;;;;;4939592;28;20035;-61
2021/11/18 11:37:47;;;;;;;33.10;23.45;;;6.00;63.50;;;;;;4934534;28;20487;-62
2021/11/18 11:40:33;;;;;;;33.83;21.70;;;6.00;63.40;;;;;;4932609;28;20066;-62
2021/11/18 11:43:25;;;;;;;27.85;18.88;;;6.00;63.50;;;;;;4940632;28;21006;-62
2021/11/18 11:46:09;;;;;;;36.58;23.08;;;6.00;63.40;;;;;;4937232;29;20051;-62
2021/11/18 11:49:02;;;;;;;31.27;18.20;;;6.00;63.40;;;;;;4938030;28;20031;-62
2021/11/18 11:51:40;;;;;;;26.70;19.05;;;6.10;63.30;;;;;;4934665;28;20173;-61
2021/11/18 11:54:24;;;;;;;29.85;18.25;;;6.10;63.50;;;;;;4935381;28;20798;-62
2021/11/18 11:57:28;;;;;;;31.13;18.20;;;6.10;63.50;;;;;;4943125;28;20475;-62
2021/11/18 12:00:30;;;;;;;30.15;18.40;;;6.10;63.50;;;;;;4921235;28;20059;-61
2021/11/18 12:03:16;;;;;;;;;;;6.10;63.50;;;;;;4934644;28;20115;-61
2021/11/18 12:06:06;;;;;;;24.40;16.63;;;6.00;63.40;;;;;;4937607;28;19914;-62
2021/11/18 12:08:47;;;;;;;29.83;19.40;;;6.10;63.40;;;;;;4925237;28;20074;-60
2021/11/18 12:11:16;;;;;;;32.35;21.85;;;6.10;63.40;;;;;;4935489;28;20023;-61
2021/11/18 12:13:53;;;;;;;34.78;23.23;;;6.00;63.50;;;;;;4929196;28;20043;-59
2021/11/18 12:16:30;;;;;;;32.53;21.50;;;6.10;63.60;;;;;;4936982;28;20075;-60
2021/11/18 12:19:02;;;;;;;35.13;22.17;;;6.10;63.60;;;;;;4933136;28;20571;-61
2021/11/18 12:21:31;;;;;;;32.85;21.00;;;6.10;63.50;;;;;;4939149;28;20082;-63
2021/11/18 12:24:05;;;;;;;29.80;19.40;;;6.10;63.50;;;;;;4938650;28;20133;-63
2021/11/18 12:26:45;;;;;;;32.00;20.08;;;6.10;63.60;;;;;;4935689;28;20078;-61
2021/11/18 12:29:21;;;;;;;32.17;20.70;;;6.10;63.60;;;;;;4935842;28;20309;-59
2021/11/18 12:32:08;;;;;;;29.42;19.38;;;6.10;63.60;;;;;;4937287;28;20058;-58
2021/11/18 12:35:15;;;;;;;27.65;17.50;;;6.10;63.60;;;;;;4936759;28;20027;-59
2021/11/18 12:37:47;;;;;;;28.80;18.30;;;6.10;63.60;;;;;;4932991;28;20050;-59
2021/11/18 12:41:10;;;;;;;28.17;19.33;;;6.10;63.80;;;;;;4936400;28;20047;-62
2021/11/18 12:43:59;;;;;;;28.58;19.80;;;6.10;63.70;;;;;;4940455;28;20031;-62
2021/11/18 12:46:30;;;;;;;35.33;21.75;;;6.10;63.80;;;;;;4937719;28;20035;-61
2021/11/18 12:49:04;;;;;;;30.60;21.42;;;6.10;63.90;;;;;;4938726;28;20391;-63
2021/11/18 12:51:45;;;;;;;32.95;22.20;;;6.00;63.80;;;;;;4933446;28;20105;-61
2021/11/18 12:54:17;;;;;;;33.10;22.40;;;6.00;63.90;;;;;;4926294;28;20033;-62
2021/11/18 12:56:52;;;;;;;38.50;23.80;;;6.00;64.00;;;;;;4929247;28;20463;-60